Terminal Aerodrome Forecast
Issued by NWS Blacksburg, VA

Home | Current Version | Previous Version | Text Only | Print | Product List | Glossary On
Versions: 1 2 3 4 5 6 7 8 9 10 11 12 13 14 15 16 17 18 19 20 21 22 23 24 25 26 27 28 29 30 31 32 33 34 35 36 37 38 39 40 41 42
000
FTUS41 KRNK 260735 AAA
TAFDAN
TAF AMD
KDAN 260735Z 2608/2706 05008KT P6SM -RA BKN027 OVC060
     FM260900 02010KT 4SM -RA SCT015 OVC025
     FM261200 01012KT 3SM RA OVC007
     FM262100 35008KT 6SM BR OVC015
     FM270000 VRB03KT P6SM SCT015 OVC050=

USA.gov is the U.S. government's official web portal to all federal, state and local government web resources and services.